sensor_id;sensor_type;location;lat;lon;timestamp;temperature;humidity
4908;DHT22;64375;51.540;7.364;2023-04-12T00:01:14;16.00;77.30
4908;DHT22;64375;51.540;7.364;2023-04-12T00:03:42;16.10;77.10
4908;DHT22;64375;51.540;7.364;2023-04-12T00:06:18;16.10;77.70
4908;DHT22;64375;51.540;7.364;2023-04-12T00:08:53;16.30;76.60
4908;DHT22;64375;51.540;7.364;2023-04-12T00:11:24;16.20;77.40
4908;DHT22;64375;51.540;7.364;2023-04-12T00:13:53;16.40;77.70
4908;DHT22;64375;51.540;7.364;2023-04-12T00:16:30;16.50;77.50
4908;DHT22;64375;51.540;7.364;2023-04-12T00:18:58;16.60;77.20
4908;DHT22;64375;51.540;7.364;2023-04-12T00:21:27;16.80;76.80
4908;DHT22;64375;51.540;7.364;2023-04-12T00:24:05;17.00;76.30
4908;DHT22;64375;51.540;7.364;2023-04-12T00:26:39;17.00;76.30
4908;DHT22;64375;51.540;7.364;2023-04-12T00:29:16;17.10;76.10
4908;DHT22;64375;51.540;7.364;2023-04-12T00:31:45;17.20;75.80
4908;DHT22;64375;51.540;7.364;2023-04-12T00:34:16;17.30;75.80
4908;DHT22;64375;51.540;7.364;2023-04-12T00:36:47;17.30;75.80
4908;DHT22;64375;51.540;7.364;2023-04-12T00:39:18;17.30;75.80
4908;DHT22;64375;51.540;7.364;2023-04-12T00:41:46;17.40;75.60
4908;DHT22;64375;51.540;7.364;2023-04-12T00:44:13;17.50;75.60
4908;DHT22;64375;51.540;7.364;2023-04-12T00:46:45;17.50;75.50
4908;DHT22;64375;51.540;7.364;2023-04-12T00:49:19;17.50;75.50
4908;DHT22;64375;51.540;7.364;2023-04-12T00:51:50;17.50;75.60
4908;DHT22;64375;51.540;7.364;2023-04-12T00:54:21;17.50;75.50
4908;DHT22;64375;51.540;7.364;2023-04-12T00:56:49;17.50;75.80
4908;DHT22;64375;51.540;7.364;2023-04-12T00:59:17;17.50;75.70
4908;DHT22;64375;51.540;7.364;2023-04-12T01:01:49;17.50;75.80
4908;DHT22;64375;51.540;7.364;2023-04-12T01:04:21;17.50;75.80
4908;DHT22;64375;51.540;7.364;2023-04-12T01:07:01;17.50;75.90
4908;DHT22;64375;51.540;7.364;2023-04-12T01:09:35;17.50;76.00
4908;DHT22;64375;51.540;7.364;2023-04-12T01:12:19;17.50;75.90
4908;DHT22;64375;51.540;7.364;2023-04-12T01:14:57;17.40;74.60
4908;DHT22;64375;51.540;7.364;2023-04-12T01:17:31;17.50;75.80
4908;DHT22;64375;51.540;7.364;2023-04-12T01:20:14;17.50;76.30
4908;DHT22;64375;51.540;7.364;2023-04-12T01:23:11;17.50;76.00
4908;DHT22;64375;51.540;7.364;2023-04-12T01:26:15;17.50;76.20
4908;DHT22;64375;51.540;7.364;2023-04-12T01:28:54;17.60;76.40
4908;DHT22;64375;51.540;7.364;2023-04-12T01:31:23;17.50;76.40
4908;DHT22;64375;51.540;7.364;2023-04-12T01:33:53;17.50;76.20
4908;DHT22;64375;51.540;7.364;2023-04-12T01:36:24;17.60;76.30
4908;DHT22;64375;51.540;7.364;2023-04-12T01:39:02;17.60;76.40
4908;DHT22;64375;51.540;7.364;2023-04-12T01:41:38;17.40;75.60
4908;DHT22;64375;51.540;7.364;2023-04-12T01:44:24;17.30;76.60
4908;DHT22;64375;51.540;7.364;2023-04-12T01:46:55;17.10;76.80
4908;DHT22;64375;51.540;7.364;2023-04-12T01:49:26;17.10;74.70
4908;DHT22;64375;51.540;7.364;2023-04-12T01:52:02;17.20;77.20
4908;DHT22;64375;51.540;7.364;2023-04-12T01:54:43;17.10;77.10
4908;DHT22;64375;51.540;7.364;2023-04-12T01:57:17;17.20;77.00
4908;DHT22;64375;51.540;7.364;2023-04-12T02:00:04;17.20;72.50
4908;DHT22;64375;51.540;7.364;2023-04-12T02:02:34;17.10;77.20
4908;DHT22;64375;51.540;7.364;2023-04-12T02:05:15;17.10;76.80
4908;DHT22;64375;51.540;7.364;2023-04-12T02:07:49;17.00;77.10
4908;DHT22;64375;51.540;7.364;2023-04-12T02:10:29;17.10;77.80
4908;DHT22;64375;51.540;7.364;2023-04-12T02:13:05;16.90;74.60
4908;DHT22;64375;51.540;7.364;2023-04-12T02:15:37;16.90;76.70
4908;DHT22;64375;51.540;7.364;2023-04-12T02:18:09;16.90;77.50
4908;DHT22;64375;51.540;7.364;2023-04-12T02:20:37;16.90;77.80
4908;DHT22;64375;51.540;7.364;2023-04-12T02:23:14;17.00;77.60
4908;DHT22;64375;51.540;7.364;2023-04-12T02:25:44;17.00;77.60
4908;DHT22;64375;51.540;7.364;2023-04-12T02:28:20;17.00;77.40
4908;DHT22;64375;51.540;7.364;2023-04-12T02:30:59;16.80;72.70
4908;DHT22;64375;51.540;7.364;2023-04-12T02:33:30;16.80;75.60
4908;DHT22;64375;51.540;7.364;2023-04-12T02:35:58;16.70;78.00
4908;DHT22;64375;51.540;7.364;2023-04-12T02:38:28;16.50;75.00
4908;DHT22;64375;51.540;7.364;2023-04-12T02:40:58;16.50;78.40
4908;DHT22;64375;51.540;7.364;2023-04-12T02:43:26;16.60;78.70
4908;DHT22;64375;51.540;7.364;2023-04-12T02:45:54;16.50;78.20
4908;DHT22;64375;51.540;7.364;2023-04-12T02:48:23;16.60;77.80
4908;DHT22;64375;51.540;7.364;2023-04-12T02:50:57;16.60;76.70
4908;DHT22;64375;51.540;7.364;2023-04-12T02:53:28;16.70;78.50
4908;DHT22;64375;51.540;7.364;2023-04-12T02:55:59;16.40;74.60
4908;DHT22;64375;51.540;7.364;2023-04-12T02:58:32;16.20;76.40
4908;DHT22;64375;51.540;7.364;2023-04-12T03:01:00;16.30;79.50
4908;DHT22;64375;51.540;7.364;2023-04-12T03:03:29;16.00;78.10
4908;DHT22;64375;51.540;7.364;2023-04-12T03:06:04;16.10;77.70
4908;DHT22;64375;51.540;7.364;2023-04-12T03:08:35;16.30;79.70
4908;DHT22;64375;51.540;7.364;2023-04-12T03:11:03;16.00;78.50
4908;DHT22;64375;51.540;7.364;2023-04-12T03:13:34;16.10;79.00
4908;DHT22;64375;51.540;7.364;2023-04-12T03:16:23;16.10;77.00
4908;DHT22;64375;51.540;7.364;2023-04-12T03:18:52;16.10;75.40
4908;DHT22;64375;51.540;7.364;2023-04-12T03:21:20;16.00;78.60
4908;DHT22;64375;51.540;7.364;2023-04-12T03:23:54;16.20;79.60
4908;DHT22;64375;51.540;7.364;2023-04-12T03:26:23;16.20;75.40
4908;DHT22;64375;51.540;7.364;2023-04-12T03:29:01;16.10;79.30
4908;DHT22;64375;51.540;7.364;2023-04-12T03:31:30;16.00;78.40
4908;DHT22;64375;51.540;7.364;2023-04-12T03:34:00;16.00;76.10
4908;DHT22;64375;51.540;7.364;2023-04-12T03:36:28;16.00;80.00
4908;DHT22;64375;51.540;7.364;2023-04-12T03:39:02;15.90;79.60
4908;DHT22;64375;51.540;7.364;2023-04-12T03:41:36;15.80;76.70
4908;DHT22;64375;51.540;7.364;2023-04-12T03:44:07;15.70;76.30
4908;DHT22;64375;51.540;7.364;2023-04-12T03:46:35;15.70;78.30
4908;DHT22;64375;51.540;7.364;2023-04-12T03:49:07;15.80;79.90
4908;DHT22;64375;51.540;7.364;2023-04-12T03:51:38;15.80;79.00
4908;DHT22;64375;51.540;7.364;2023-04-12T03:54:14;16.00;79.80
4908;DHT22;64375;51.540;7.364;2023-04-12T03:56:42;16.20;78.80
4908;DHT22;64375;51.540;7.364;2023-04-12T03:59:17;16.10;79.30
4908;DHT22;64375;51.540;7.364;2023-04-12T04:01:52;16.40;79.60
4908;DHT22;64375;51.540;7.364;2023-04-12T04:04:21;16.50;79.20
4908;DHT22;64375;51.540;7.364;2023-04-12T04:06:50;16.50;79.30
4908;DHT22;64375;51.540;7.364;2023-04-12T04:09:21;16.30;77.10
4908;DHT22;64375;51.540;7.364;2023-04-12T04:11:49;16.40;79.20
4908;DHT22;64375;51.540;7.364;2023-04-12T04:14:17;16.30;78.40
4908;DHT22;64375;51.540;7.364;2023-04-12T04:16:48;16.40;79.70
4908;DHT22;64375;51.540;7.364;2023-04-12T04:19:27;16.30;77.20
4908;DHT22;64375;51.540;7.364;2023-04-12T04:21:55;16.10;78.60
4908;DHT22;64375;51.540;7.364;2023-04-12T04:24:23;16.20;80.10
4908;DHT22;64375;51.540;7.364;2023-04-12T04:26:57;16.10;79.30
4908;DHT22;64375;51.540;7.364;2023-04-12T04:29:28;16.10;77.60
4908;DHT22;64375;51.540;7.364;2023-04-12T04:32:00;15.80;76.10
4908;DHT22;64375;51.540;7.364;2023-04-12T04:34:34;15.70;80.30
4908;DHT22;64375;51.540;7.364;2023-04-12T04:37:05;15.90;78.10
4908;DHT22;64375;51.540;7.364;2023-04-12T04:39:33;15.80;77.70
4908;DHT22;64375;51.540;7.364;2023-04-12T04:42:01;15.70;79.70
4908;DHT22;64375;51.540;7.364;2023-04-12T04:44:34;15.70;81.80
4908;DHT22;64375;51.540;7.364;2023-04-12T04:47:08;15.70;79.80
4908;DHT22;64375;51.540;7.364;2023-04-12T04:49:41;15.70;77.20
4908;DHT22;64375;51.540;7.364;2023-04-12T04:52:09;15.60;79.50
4908;DHT22;64375;51.540;7.364;2023-04-12T04:54:47;15.70;80.60
4908;DHT22;64375;51.540;7.364;2023-04-12T04:57:19;15.80;81.20
4908;DHT22;64375;51.540;7.364;2023-04-12T04:59:53;15.90;81.50
4908;DHT22;64375;51.540;7.364;2023-04-12T05:02:24;15.90;81.10
4908;DHT22;64375;51.540;7.364;2023-04-12T05:04:53;16.00;81.40
4908;DHT22;64375;51.540;7.364;2023-04-12T05:07:22;15.80;78.60
4908;DHT22;64375;51.540;7.364;2023-04-12T05:09:57;15.80;80.70
4908;DHT22;64375;51.540;7.364;2023-04-12T05:12:25;15.90;79.60
4908;DHT22;64375;51.540;7.364;2023-04-12T05:14:54;15.60;79.00
4908;DHT22;64375;51.540;7.364;2023-04-12T05:17:43;15.70;78.70
4908;DHT22;64375;51.540;7.364;2023-04-12T05:20:33;15.50;78.40
4908;DHT22;64375;51.540;7.364;2023-04-12T05:23:05;15.60;81.00
4908;DHT22;64375;51.540;7.364;2023-04-12T05:25:33;15.80;81.30
4908;DHT22;64375;51.540;7.364;2023-04-12T05:28:20;15.60;81.40
4908;DHT22;64375;51.540;7.364;2023-04-12T05:30:51;15.90;82.10
4908;DHT22;64375;51.540;7.364;2023-04-12T05:33:19;15.90;81.30
4908;DHT22;64375;51.540;7.364;2023-04-12T05:35:48;15.90;79.70
4908;DHT22;64375;51.540;7.364;2023-04-12T05:38:16;15.70;81.80
4908;DHT22;64375;51.540;7.364;2023-04-12T05:41:07;15.90;81.90
4908;DHT22;64375;51.540;7.364;2023-04-12T05:43:37;15.80;80.00
4908;DHT22;64375;51.540;7.364;2023-04-12T05:46:08;15.70;80.10
4908;DHT22;64375;51.540;7.364;2023-04-12T05:48:43;15.50;80.40
4908;DHT22;64375;51.540;7.364;2023-04-12T05:51:13;15.50;82.80
4908;DHT22;64375;51.540;7.364;2023-04-12T05:53:57;15.70;82.80
4908;DHT22;64375;51.540;7.364;2023-04-12T05:56:25;15.80;82.30
4908;DHT22;64375;51.540;7.364;2023-04-12T05:58:59;16.00;82.40
4908;DHT22;64375;51.540;7.364;2023-04-12T06:01:27;15.80;81.60
4908;DHT22;64375;51.540;7.364;2023-04-12T06:03:58;15.90;82.40
4908;DHT22;64375;51.540;7.364;2023-04-12T06:06:32;15.90;81.70
4908;DHT22;64375;51.540;7.364;2023-04-12T06:09:02;15.80;80.90
4908;DHT22;64375;51.540;7.364;2023-04-12T06:11:33;15.60;81.50
4908;DHT22;64375;51.540;7.364;2023-04-12T06:14:01;15.70;83.40
4908;DHT22;64375;51.540;7.364;2023-04-12T06:16:35;15.80;81.10
4908;DHT22;64375;51.540;7.364;2023-04-12T06:19:05;15.70;82.40
4908;DHT22;64375;51.540;7.364;2023-04-12T06:21:34;15.70;82.30
4908;DHT22;64375;51.540;7.364;2023-04-12T06:24:02;15.60;83.70
4908;DHT22;64375;51.540;7.364;2023-04-12T06:26:31;15.60;83.40
4908;DHT22;64375;51.540;7.364;2023-04-12T06:29:06;15.70;82.70
4908;DHT22;64375;51.540;7.364;2023-04-12T06:31:33;15.90;83.40
4908;DHT22;64375;51.540;7.364;2023-04-12T06:34:01;15.90;82.60
4908;DHT22;64375;51.540;7.364;2023-04-12T06:36:29;15.80;82.40
4908;DHT22;64375;51.540;7.364;2023-04-12T06:39:01;15.60;83.20
4908;DHT22;64375;51.540;7.364;2023-04-12T06:41:29;15.60;82.30
4908;DHT22;64375;51.540;7.364;2023-04-12T06:44:00;15.00;84.00
4908;DHT22;64375;51.540;7.364;2023-04-12T06:46:31;15.00;84.70
4908;DHT22;64375;51.540;7.364;2023-04-12T06:48:59;15.10;85.20
4908;DHT22;64375;51.540;7.364;2023-04-12T06:51:27;15.20;85.80
4908;DHT22;64375;51.540;7.364;2023-04-12T06:53:55;15.10;85.60
4908;DHT22;64375;51.540;7.364;2023-04-12T06:56:24;15.10;85.30
4908;DHT22;64375;51.540;7.364;2023-04-12T06:58:52;15.00;86.70
4908;DHT22;64375;51.540;7.364;2023-04-12T07:01:20;15.40;85.70
4908;DHT22;64375;51.540;7.364;2023-04-12T07:03:48;15.20;85.20
4908;DHT22;64375;51.540;7.364;2023-04-12T07:06:16;15.40;85.40
4908;DHT22;64375;51.540;7.364;2023-04-12T07:08:57;15.60;86.20
4908;DHT22;64375;51.540;7.364;2023-04-12T07:11:34;15.50;85.00
4908;DHT22;64375;51.540;7.364;2023-04-12T07:14:02;15.40;85.30
4908;DHT22;64375;51.540;7.364;2023-04-12T07:16:30;15.40;86.60
4908;DHT22;64375;51.540;7.364;2023-04-12T07:19:01;15.40;86.30
4908;DHT22;64375;51.540;7.364;2023-04-12T07:21:32;15.60;86.70
4908;DHT22;64375;51.540;7.364;2023-04-12T07:23:59;15.70;86.20
4908;DHT22;64375;51.540;7.364;2023-04-12T07:26:32;15.90;86.00
4908;DHT22;64375;51.540;7.364;2023-04-12T07:29:00;15.80;85.20
4908;DHT22;64375;51.540;7.364;2023-04-12T07:31:28;15.80;85.60
4908;DHT22;64375;51.540;7.364;2023-04-12T07:34:03;15.70;86.50
4908;DHT22;64375;51.540;7.364;2023-04-12T07:36:33;15.70;86.30
4908;DHT22;64375;51.540;7.364;2023-04-12T07:39:01;15.70;86.10
4908;DHT22;64375;51.540;7.364;2023-04-12T07:41:30;15.60;86.50
4908;DHT22;64375;51.540;7.364;2023-04-12T07:43:58;15.70;85.90
4908;DHT22;64375;51.540;7.364;2023-04-12T07:46:32;15.70;86.80
4908;DHT22;64375;51.540;7.364;2023-04-12T07:49:00;15.60;86.60
4908;DHT22;64375;51.540;7.364;2023-04-12T07:51:29;15.50;86.10
4908;DHT22;64375;51.540;7.364;2023-04-12T07:53:58;15.40;87.10
4908;DHT22;64375;51.540;7.364;2023-04-12T07:56:26;15.20;87.60
4908;DHT22;64375;51.540;7.364;2023-04-12T07:59:01;15.30;88.20
4908;DHT22;64375;51.540;7.364;2023-04-12T08:01:29;15.40;87.80
4908;DHT22;64375;51.540;7.364;2023-04-12T08:04:02;15.70;87.80
4908;DHT22;64375;51.540;7.364;2023-04-12T08:06:30;15.80;87.30
4908;DHT22;64375;51.540;7.364;2023-04-12T08:09:00;16.00;86.60
4908;DHT22;64375;51.540;7.364;2023-04-12T08:11:28;16.00;87.20
4908;DHT22;64375;51.540;7.364;2023-04-12T08:13:59;16.30;86.20
4908;DHT22;64375;51.540;7.364;2023-04-12T08:16:30;16.10;86.40
4908;DHT22;64375;51.540;7.364;2023-04-12T08:18:58;16.00;86.90
4908;DHT22;64375;51.540;7.364;2023-04-12T08:21:26;16.20;86.30
4908;DHT22;64375;51.540;7.364;2023-04-12T08:23:58;16.20;86.80
4908;DHT22;64375;51.540;7.364;2023-04-12T08:26:26;16.20;86.60
4908;DHT22;64375;51.540;7.364;2023-04-12T08:28:55;16.70;86.00
4908;DHT22;64375;51.540;7.364;2023-04-12T08:31:25;16.80;85.60
4908;DHT22;64375;51.540;7.364;2023-04-12T08:33:53;16.90;85.10
4908;DHT22;64375;51.540;7.364;2023-04-12T08:36:22;17.00;84.90
4908;DHT22;64375;51.540;7.364;2023-04-12T08:38:50;17.10;84.60
4908;DHT22;64375;51.540;7.364;2023-04-12T08:41:19;17.10;84.60
4908;DHT22;64375;51.540;7.364;2023-04-12T08:43:47;17.10;84.40
4908;DHT22;64375;51.540;7.364;2023-04-12T08:46:16;17.00;84.40
4908;DHT22;64375;51.540;7.364;2023-04-12T08:48:51;17.00;84.50
4908;DHT22;64375;51.540;7.364;2023-04-12T08:51:21;16.90;84.30
4908;DHT22;64375;51.540;7.364;2023-04-12T08:53:49;16.80;84.50
4908;DHT22;64375;51.540;7.364;2023-04-12T08:56:20;16.80;84.70
4908;DHT22;64375;51.540;7.364;2023-04-12T08:58:50;16.80;84.70
4908;DHT22;64375;51.540;7.364;2023-04-12T09:01:20;16.60;85.90
4908;DHT22;64375;51.540;7.364;2023-04-12T09:03:48;16.30;86.90
4908;DHT22;64375;51.540;7.364;2023-04-12T09:06:25;16.20;86.20
4908;DHT22;64375;51.540;7.364;2023-04-12T09:08:55;16.20;86.60
4908;DHT22;64375;51.540;7.364;2023-04-12T09:11:32;16.40;86.20
4908;DHT22;64375;51.540;7.364;2023-04-12T09:14:00;16.30;86.50
4908;DHT22;64375;51.540;7.364;2023-04-12T09:16:35;16.20;86.60
4908;DHT22;64375;51.540;7.364;2023-04-12T09:19:04;16.30;86.50
4908;DHT22;64375;51.540;7.364;2023-04-12T09:21:34;16.60;86.50
4908;DHT22;64375;51.540;7.364;2023-04-12T09:24:06;16.80;86.00
4908;DHT22;64375;51.540;7.364;2023-04-12T09:26:40;17.00;85.40
4908;DHT22;64375;51.540;7.364;2023-04-12T09:29:28;17.00;85.00
4908;DHT22;64375;51.540;7.364;2023-04-12T09:32:01;17.00;84.90
4908;DHT22;64375;51.540;7.364;2023-04-12T09:34:33;17.10;84.80
4908;DHT22;64375;51.540;7.364;2023-04-12T09:37:12;17.10;84.60
4908;DHT22;64375;51.540;7.364;2023-04-12T09:39:42;17.20;84.50
4908;DHT22;64375;51.540;7.364;2023-04-12T09:42:28;17.20;84.60
4908;DHT22;64375;51.540;7.364;2023-04-12T09:45:24;17.30;84.80
4908;DHT22;64375;51.540;7.364;2023-04-12T09:48:04;17.40;84.70
4908;DHT22;64375;51.540;7.364;2023-04-12T09:50:33;17.40;84.70
4908;DHT22;64375;51.540;7.364;2023-04-12T09:53:15;17.40;84.60
4908;DHT22;64375;51.540;7.364;2023-04-12T09:56:05;17.50;85.40
4908;DHT22;64375;51.540;7.364;2023-04-12T09:58:37;17.50;85.00
4908;DHT22;64375;51.540;7.364;2023-04-12T10:01:08;17.50;84.90
4908;DHT22;64375;51.540;7.364;2023-04-12T10:03:36;17.50;85.00
4908;DHT22;64375;51.540;7.364;2023-04-12T10:06:06;17.50;84.70
4908;DHT22;64375;51.540;7.364;2023-04-12T10:08:38;17.60;84.60
4908;DHT22;64375;51.540;7.364;2023-04-12T10:11:07;17.60;84.40
4908;DHT22;64375;51.540;7.364;2023-04-12T10:13:36;17.70;84.50
4908;DHT22;64375;51.540;7.364;2023-04-12T10:16:05;17.70;84.40
4908;DHT22;64375;51.540;7.364;2023-04-12T10:18:37;17.60;84.70
4908;DHT22;64375;51.540;7.364;2023-04-12T10:21:06;17.50;85.00
4908;DHT22;64375;51.540;7.364;2023-04-12T10:23:39;17.60;84.90
4908;DHT22;64375;51.540;7.364;2023-04-12T10:26:14;17.60;85.00
4908;DHT22;64375;51.540;7.364;2023-04-12T10:28:45;17.60;85.00
4908;DHT22;64375;51.540;7.364;2023-04-12T10:31:39;17.60;85.40
4908;DHT22;64375;51.540;7.364;2023-04-12T10:34:08;17.60;86.10
4908;DHT22;64375;51.540;7.364;2023-04-12T10:36:57;17.60;85.90
4908;DHT22;64375;51.540;7.364;2023-04-12T10:39:40;17.80;86.20
4908;DHT22;64375;51.540;7.364;2023-04-12T10:42:19;17.80;85.90
4908;DHT22;64375;51.540;7.364;2023-04-12T10:44:49;17.80;85.70
4908;DHT22;64375;51.540;7.364;2023-04-12T10:50:23;18.00;85.30
4908;DHT22;64375;51.540;7.364;2023-04-12T10:53:20;18.00;85.20
4908;DHT22;64375;51.540;7.364;2023-04-12T10:55:54;18.00;86.00
4908;DHT22;64375;51.540;7.364;2023-04-12T10:58:59;18.00;86.00
4908;DHT22;64375;51.540;7.364;2023-04-12T11:01:30;18.00;85.80
4908;DHT22;64375;51.540;7.364;2023-04-12T11:04:16;18.10;85.90
4908;DHT22;64375;51.540;7.364;2023-04-12T11:06:54;18.10;85.70
4908;DHT22;64375;51.540;7.364;2023-04-12T11:09:37;18.10;85.60
4908;DHT22;64375;51.540;7.364;2023-04-12T11:12:29;18.10;85.50
4908;DHT22;64375;51.540;7.364;2023-04-12T11:15:09;18.10;85.50
4908;DHT22;64375;51.540;7.364;2023-04-12T11:17:40;18.10;85.20
4908;DHT22;64375;51.540;7.364;2023-04-12T11:20:20;18.10;85.80
4908;DHT22;64375;51.540;7.364;2023-04-12T11:22:55;18.10;85.50
4908;DHT22;64375;51.540;7.364;2023-04-12T11:25:23;18.00;85.60
4908;DHT22;64375;51.540;7.364;2023-04-12T11:27:53;17.80;85.90
4908;DHT22;64375;51.540;7.364;2023-04-12T11:30:24;17.90;85.90
4908;DHT22;64375;51.540;7.364;2023-04-12T11:32:52;17.50;86.10
4908;DHT22;64375;51.540;7.364;2023-04-12T11:35:20;17.20;87.90
4908;DHT22;64375;51.540;7.364;2023-04-12T11:37:55;17.00;88.70
4908;DHT22;64375;51.540;7.364;2023-04-12T11:40:27;16.80;89.80
4908;DHT22;64375;51.540;7.364;2023-04-12T11:43:02;16.60;90.50
4908;DHT22;64375;51.540;7.364;2023-04-12T11:45:31;16.60;91.10
4908;DHT22;64375;51.540;7.364;2023-04-12T11:48:11;16.80;91.00
4908;DHT22;64375;51.540;7.364;2023-04-12T11:50:46;16.90;90.70
4908;DHT22;64375;51.540;7.364;2023-04-12T11:53:36;17.00;90.50
4908;DHT22;64375;51.540;7.364;2023-04-12T11:56:11;17.10;90.70
4908;DHT22;64375;51.540;7.364;2023-04-12T11:58:45;17.20;90.20
4908;DHT22;64375;51.540;7.364;2023-04-12T12:01:13;17.10;90.00
4908;DHT22;64375;51.540;7.364;2023-04-12T12:03:42;17.00;90.40
4908;DHT22;64375;51.540;7.364;2023-04-12T12:06:17;16.80;90.40
4908;DHT22;64375;51.540;7.364;2023-04-12T12:08:46;17.00;90.10
4908;DHT22;64375;51.540;7.364;2023-04-12T12:11:27;17.00;90.00
4908;DHT22;64375;51.540;7.364;2023-04-12T12:13:59;17.10;89.90
4908;DHT22;64375;51.540;7.364;2023-04-12T12:16:28;17.20;89.80
4908;DHT22;64375;51.540;7.364;2023-04-12T12:19:03;17.30;89.50
4908;DHT22;64375;51.540;7.364;2023-04-12T12:21:34;17.20;88.10
4908;DHT22;64375;51.540;7.364;2023-04-12T12:24:05;17.10;87.40
4908;DHT22;64375;51.540;7.364;2023-04-12T12:26:35;17.00;88.60
4908;DHT22;64375;51.540;7.364;2023-04-12T12:29:16;16.90;88.60
4908;DHT22;64375;51.540;7.364;2023-04-12T12:31:45;17.00;89.80
4908;DHT22;64375;51.540;7.364;2023-04-12T12:34:17;16.90;89.00
4908;DHT22;64375;51.540;7.364;2023-04-12T12:36:53;16.90;89.50
4908;DHT22;64375;51.540;7.364;2023-04-12T12:39:21;16.90;89.70
4908;DHT22;64375;51.540;7.364;2023-04-12T12:41:52;17.00;88.50
4908;DHT22;64375;51.540;7.364;2023-04-12T12:44:25;17.10;88.90
4908;DHT22;64375;51.540;7.364;2023-04-12T12:46:53;17.00;87.60
4908;DHT22;64375;51.540;7.364;2023-04-12T12:49:41;17.00;88.50
4908;DHT22;64375;51.540;7.364;2023-04-12T12:52:16;17.10;87.80
4908;DHT22;64375;51.540;7.364;2023-04-12T12:54:58;16.70;88.40
4908;DHT22;64375;51.540;7.364;2023-04-12T12:57:32;16.70;88.00
4908;DHT22;64375;51.540;7.364;2023-04-12T13:00:03;16.60;88.10
4908;DHT22;64375;51.540;7.364;2023-04-12T13:02:31;16.70;89.90
4908;DHT22;64375;51.540;7.364;2023-04-12T13:05:12;16.90;89.20
4908;DHT22;64375;51.540;7.364;2023-04-12T13:07:40;17.10;88.50
4908;DHT22;64375;51.540;7.364;2023-04-12T13:10:09;17.20;88.50
4908;DHT22;64375;51.540;7.364;2023-04-12T13:12:37;17.30;88.00
4908;DHT22;64375;51.540;7.364;2023-04-12T13:15:07;17.20;87.50
4908;DHT22;64375;51.540;7.364;2023-04-12T13:17:49;17.20;87.10
4908;DHT22;64375;51.540;7.364;2023-04-12T13:20:17;17.20;87.70
4908;DHT22;64375;51.540;7.364;2023-04-12T13:22:45;17.20;87.80
4908;DHT22;64375;51.540;7.364;2023-04-12T13:25:13;17.30;85.70
4908;DHT22;64375;51.540;7.364;2023-04-12T13:27:41;17.20;87.20
4908;DHT22;64375;51.540;7.364;2023-04-12T13:30:11;17.20;87.60
4908;DHT22;64375;51.540;7.364;2023-04-12T13:32:39;17.20;87.60
4908;DHT22;64375;51.540;7.364;2023-04-12T13:35:07;17.30;87.60
4908;DHT22;64375;51.540;7.364;2023-04-12T13:37:35;17.30;85.90
4908;DHT22;64375;51.540;7.364;2023-04-12T13:40:04;17.50;87.70
4908;DHT22;64375;51.540;7.364;2023-04-12T13:42:33;17.60;87.50
4908;DHT22;64375;51.540;7.364;2023-04-12T13:45:01;18.00;86.50
4908;DHT22;64375;51.540;7.364;2023-04-12T13:47:31;17.90;84.60
4908;DHT22;64375;51.540;7.364;2023-04-12T13:49:59;17.80;86.10
4908;DHT22;64375;51.540;7.364;2023-04-12T13:52:30;17.70;86.40
4908;DHT22;64375;51.540;7.364;2023-04-12T13:54:58;17.60;85.50
4908;DHT22;64375;51.540;7.364;2023-04-12T13:57:26;17.80;86.80
4908;DHT22;64375;51.540;7.364;2023-04-12T13:59:59;17.70;84.70
4908;DHT22;64375;51.540;7.364;2023-04-12T14:02:27;17.60;83.80
4908;DHT22;64375;51.540;7.364;2023-04-12T14:04:58;17.70;86.10
4908;DHT22;64375;51.540;7.364;2023-04-12T14:07:29;17.80;84.80
4908;DHT22;64375;51.540;7.364;2023-04-12T14:10:00;17.70;86.50
4908;DHT22;64375;51.540;7.364;2023-04-12T14:12:34;18.00;86.40
4908;DHT22;64375;51.540;7.364;2023-04-12T14:15:03;18.30;84.20
4908;DHT22;64375;51.540;7.364;2023-04-12T14:17:31;18.20;84.60
4908;DHT22;64375;51.540;7.364;2023-04-12T14:20:01;18.60;85.00
4908;DHT22;64375;51.540;7.364;2023-04-12T14:22:32;18.70;85.50
4908;DHT22;64375;51.540;7.364;2023-04-12T14:25:06;18.60;80.70
4908;DHT22;64375;51.540;7.364;2023-04-12T14:27:35;18.60;84.40
4908;DHT22;64375;51.540;7.364;2023-04-12T14:30:04;18.80;82.00
4908;DHT22;64375;51.540;7.364;2023-04-12T14:32:33;18.50;82.20
4908;DHT22;64375;51.540;7.364;2023-04-12T14:35:02;18.50;83.50
4908;DHT22;64375;51.540;7.364;2023-04-12T14:37:34;18.60;82.70
4908;DHT22;64375;51.540;7.364;2023-04-12T14:40:02;18.40;80.50
4908;DHT22;64375;51.540;7.364;2023-04-12T14:42:33;18.40;81.50
4908;DHT22;64375;51.540;7.364;2023-04-12T14:45:01;18.50;83.90
4908;DHT22;64375;51.540;7.364;2023-04-12T14:47:33;18.50;83.10
4908;DHT22;64375;51.540;7.364;2023-04-12T14:50:03;18.20;77.10
4908;DHT22;64375;51.540;7.364;2023-04-12T14:52:32;18.00;82.40
4908;DHT22;64375;51.540;7.364;2023-04-12T14:54:59;18.00;81.90
4908;DHT22;64375;51.540;7.364;2023-04-12T14:57:27;18.00;83.80
4908;DHT22;64375;51.540;7.364;2023-04-12T14:59:55;18.00;83.40
4908;DHT22;64375;51.540;7.364;2023-04-12T15:02:24;18.00;83.60
4908;DHT22;64375;51.540;7.364;2023-04-12T15:04:55;17.90;84.10
4908;DHT22;64375;51.540;7.364;2023-04-12T15:07:26;17.90;84.30
4908;DHT22;64375;51.540;7.364;2023-04-12T15:09:54;17.90;84.50
4908;DHT22;64375;51.540;7.364;2023-04-12T15:12:27;17.90;82.80
4908;DHT22;64375;51.540;7.364;2023-04-12T15:15:01;18.00;85.20
4908;DHT22;64375;51.540;7.364;2023-04-12T15:17:32;18.00;85.30
4908;DHT22;64375;51.540;7.364;2023-04-12T15:20:04;18.00;84.40
4908;DHT22;64375;51.540;7.364;2023-04-12T15:22:38;18.00;84.40
4908;DHT22;64375;51.540;7.364;2023-04-12T15:25:07;18.10;84.50
4908;DHT22;64375;51.540;7.364;2023-04-12T15:27:36;18.00;84.90
4908;DHT22;64375;51.540;7.364;2023-04-12T15:30:05;18.10;83.80
4908;DHT22;64375;51.540;7.364;2023-04-12T15:32:39;18.10;85.00
4908;DHT22;64375;51.540;7.364;2023-04-12T15:35:09;18.30;84.80
4908;DHT22;64375;51.540;7.364;2023-04-12T15:37:46;18.40;84.70
4908;DHT22;64375;51.540;7.364;2023-04-12T15:40:17;18.20;83.70
4908;DHT22;64375;51.540;7.364;2023-04-12T15:42:46;18.30;83.30
4908;DHT22;64375;51.540;7.364;2023-04-12T15:45:22;18.20;85.00
4908;DHT22;64375;51.540;7.364;2023-04-12T15:47:50;18.40;84.40
4908;DHT22;64375;51.540;7.364;2023-04-12T15:50:23;18.50;82.20
4908;DHT22;64375;51.540;7.364;2023-04-12T15:52:55;18.50;83.80
4908;DHT22;64375;51.540;7.364;2023-04-12T15:55:24;18.60;84.20
4908;DHT22;64375;51.540;7.364;2023-04-12T15:57:52;18.60;83.00
4908;DHT22;64375;51.540;7.364;2023-04-12T16:00:21;18.60;82.70
4908;DHT22;64375;51.540;7.364;2023-04-12T16:02:52;18.50;79.30
4908;DHT22;64375;51.540;7.364;2023-04-12T16:05:22;18.30;83.50
4908;DHT22;64375;51.540;7.364;2023-04-12T16:07:52;18.40;81.00
4908;DHT22;64375;51.540;7.364;2023-04-12T16:10:23;18.00;78.10
4908;DHT22;64375;51.540;7.364;2023-04-12T16:12:53;17.70;78.60
4908;DHT22;64375;51.540;7.364;2023-04-12T16:15:21;17.40;79.50
4908;DHT22;64375;51.540;7.364;2023-04-12T16:17:49;17.10;80.30
4908;DHT22;64375;51.540;7.364;2023-04-12T16:20:26;17.00;80.20